Time;durP1;ratioP1;P1;durP2;ratioP2;P2;SDS_P1;SDS_P2;PMS_P1;PMS_P2;Temp;Humidity;BMP_temperature;BMP_pressure;BME280_temperature;BME280_humidity;BME280_pressure;Samples;Min_cycle;Max_cycle;Signal;HPM_P1;HPM_P2
2021/06/22 00:00:23;;;;;;;4.17;3.00;;;;;;;27.84;85.03;69045.34;5048872;28;20216;-67
2021/06/22 00:02:50;;;;;;;5.70;3.37;;;;;;;27.81;87.86;69042.47;5051698;28;20255;-67
2021/06/22 00:05:18;;;;;;;4.63;3.47;;;;;;;27.77;84.53;69037.97;5046625;28;20209;-67
2021/06/22 00:07:48;;;;;;;3.30;3.00;;;;;;;27.77;82.07;69037.59;5056634;28;20220;-67
2021/06/22 00:10:16;;;;;;;4.33;3.37;;;;;;;27.76;82.04;69035.97;5053752;28;20230;-67
2021/06/22 00:12:43;;;;;;;4.07;2.93;;;;;;;27.71;85.53;69030.56;5057209;28;20209;-67
2021/06/22 00:15:13;;;;;;;3.67;2.77;;;;;;;27.68;83.87;69027.44;5051915;28;20232;-67
2021/06/22 00:17:40;;;;;;;4.93;2.80;;;;;;;27.65;82.97;69024.53;5046728;28;20204;-67
2021/06/22 00:20:09;;;;;;;3.87;2.67;;;;;;;27.62;84.22;69021.00;5052116;28;20203;-68
2021/06/22 00:22:37;;;;;;;3.40;2.87;;;;;;;27.59;83.62;69017.84;5059299;28;20209;-67
2021/06/22 00:25:07;;;;;;;5.83;2.97;;;;;;;27.59;81.32;69018.03;5053098;28;20198;-67
2021/06/22 00:27:35;;;;;;;3.40;3.10;;;;;;;27.59;81.49;69017.72;5053991;28;20287;-67
2021/06/22 00:30:02;;;;;;;5.20;3.17;;;;;;;27.59;81.50;69017.91;5052034;28;20216;-67
2021/06/22 00:32:29;;;;;;;4.13;2.63;;;;;;;27.60;80.69;69019.03;5055743;28;20221;-67
2021/06/22 00:34:57;;;;;;;4.50;3.17;;;;;;;27.57;83.97;69015.59;5051873;28;20230;-67
2021/06/22 00:37:24;;;;;;;4.60;2.93;;;;;;;27.59;80.95;69017.44;5053724;28;20209;-67
2021/06/22 00:39:51;;;;;;;3.80;3.20;;;;;;;27.61;80.21;69020.38;5052680;28;20666;-67
2021/06/22 00:42:20;;;;;;;7.37;3.50;;;;;;;27.62;80.42;69021.88;5055331;28;20218;-67
2021/06/22 00:44:48;;;;;;;6.03;3.03;;;;;;;27.61;83.15;69021.00;5052451;28;20223;-67
2021/06/22 00:47:16;;;;;;;5.87;3.33;;;;;;;27.62;80.10;69022.00;5059513;28;20198;-67
2021/06/22 00:49:44;;;;;;;6.60;3.30;;;;;;;27.62;80.63;69021.69;5050283;28;20232;-67
2021/06/22 00:52:11;;;;;;;4.67;3.53;;;;;;;27.61;81.56;69021.16;5055529;28;20654;-68
2021/06/22 00:54:39;;;;;;;6.17;3.20;;;;;;;27.57;81.67;69016.28;5054392;28;20233;-67
2021/06/22 00:57:07;;;;;;;4.17;2.73;;;;;;;27.50;81.99;69009.16;5040562;28;20242;-67
2021/06/22 00:59:36;;;;;;;4.37;2.93;;;;;;;27.48;79.14;69006.63;5052418;28;20676;-67
2021/06/22 01:02:04;;;;;;;5.13;2.60;;;;;;;27.38;86.89;68996.25;5052896;28;20645;-67
2021/06/22 01:04:32;;;;;;;3.43;2.90;;;;;;;27.34;82.51;68992.63;5050958;28;20224;-67
2021/06/22 01:07:00;;;;;;;4.33;3.07;;;;;;;27.31;80.69;68989.22;5055462;28;20222;-67
2021/06/22 01:09:28;;;;;;;5.63;2.87;;;;;;;27.29;80.05;68987.22;5051689;28;20208;-67
2021/06/22 01:11:56;;;;;;;3.87;2.87;;;;;;;27.26;81.37;68983.03;5058248;28;20206;-67
2021/06/22 01:14:23;;;;;;;3.77;2.60;;;;;;;27.24;79.79;68981.16;5046648;28;20228;-67
2021/06/22 01:16:52;;;;;;;4.43;2.80;;;;;;;27.19;83.85;68975.88;5052696;28;20675;-67
2021/06/22 01:19:19;;;;;;;4.00;3.33;;;;;;;27.18;81.54;68974.78;5053412;28;20306;-67
2021/06/22 01:21:48;;;;;;;4.03;2.80;;;;;;;27.16;81.59;68972.34;5057762;28;20213;-67
2021/06/22 01:24:18;;;;;;;5.43;3.70;;;;;;;27.12;84.32;68967.91;5054770;28;20219;-67
2021/06/22 01:26:48;;;;;;;7.20;3.17;;;;;;;27.11;81.75;68967.22;5059740;28;20205;-67
2021/06/22 01:29:16;;;;;;;7.27;3.73;;;;;;;27.10;86.25;68965.94;5054021;28;20214;-67
2021/06/22 01:31:44;;;;;;;7.03;3.70;;;;;;;27.10;86.86;68966.19;5053291;28;20213;-67
2021/06/22 01:34:12;;;;;;;11.80;3.90;;;;;;;27.09;87.21;68965.16;5051919;28;20228;-67
2021/06/22 01:36:40;;;;;;;6.53;3.80;;;;;;;27.07;82.82;68963.16;5052282;28;20809;-67
2021/06/22 01:39:14;;;;;;;4.63;3.67;;;;;;;27.02;87.92;68957.75;5058497;28;20206;-67
2021/06/22 01:41:41;;;;;;;5.17;3.53;;;;;;;27.02;84.91;68958.63;5056941;28;20211;-67
2021/06/22 01:44:09;;;;;;;6.10;4.10;;;;;;;27.07;77.98;68964.25;5052378;28;20666;-67
2021/06/22 01:46:36;;;;;;;6.03;3.23;;;;;;;27.11;76.51;68968.19;5050078;28;20192;-67
2021/06/22 01:49:04;;;;;;;6.77;3.00;;;;;;;27.09;79.82;68966.28;5049811;28;20209;-67
2021/06/22 01:51:32;;;;;;;3.23;2.40;;;;;;;27.07;81.95;68964.44;5052464;28;20288;-67
2021/06/22 01:54:01;;;;;;;3.37;2.90;;;;;;;27.07;79.83;68964.38;5054281;28;20694;-67
2021/06/22 01:56:31;;;;;;;6.50;3.20;;;;;;;27.07;78.67;68964.78;5051473;28;20279;-67
2021/06/22 01:59:01;;;;;;;7.83;3.30;;;;;;;27.02;85.41;68958.75;5053016;28;20198;-67
2021/06/22 02:01:29;;;;;;;3.63;3.27;;;;;;;27.00;82.02;68956.91;5050832;28;20262;-67
2021/06/22 02:03:56;;;;;;;5.27;3.13;;;;;;;26.98;81.85;68954.78;5051662;28;20986;-67
2021/06/22 02:06:24;;;;;;;3.33;3.00;;;;;;;26.96;81.27;68952.13;5050839;28;20200;-67
2021/06/22 02:08:51;;;;;;;4.27;3.27;;;;;;;26.92;82.76;68948.28;5052497;28;20208;-67
2021/06/22 02:11:18;;;;;;;6.07;2.97;;;;;;;26.91;80.43;68946.72;5056437;28;20686;-68
2021/06/22 02:13:48;;;;;;;4.77;2.53;;;;;;;26.89;80.65;68944.69;5051357;28;20232;-67
2021/06/22 02:16:17;;;;;;;3.87;3.03;;;;;;;26.86;81.07;68941.44;5046482;28;20716;-67
2021/06/22 02:18:44;;;;;;;4.33;2.93;;;;;;;26.83;82.11;68938.41;5051964;28;20203;-67
2021/06/22 02:21:12;;;;;;;4.73;3.20;;;;;;;26.82;80.40;68937.16;5051217;28;20213;-67
2021/06/22 02:23:40;;;;;;;6.40;3.23;;;;;;;26.77;82.21;68932.63;5051546;28;20307;-67
2021/06/22 02:26:07;;;;;;;5.00;3.50;;;;;;;26.77;80.12;68931.47;5052169;28;20209;-67
2021/06/22 02:28:35;;;;;;;4.73;3.40;;;;;;;26.75;80.22;68929.81;5057205;28;20200;-67
2021/06/22 02:31:04;;;;;;;3.63;2.70;;;;;;;26.74;78.80;68929.75;5048470;28;20199;-67
2021/06/22 02:33:31;;;;;;;3.47;2.77;;;;;;;26.75;78.22;68930.66;5051037;28;20230;-67
2021/06/22 02:35:58;;;;;;;4.20;3.03;;;;;;;26.73;80.76;68928.34;5051307;28;20232;-67
2021/06/22 02:38:26;;;;;;;4.63;2.93;;;;;;;26.72;80.43;68927.97;5057896;28;20210;-67
2021/06/22 02:40:53;;;;;;;4.43;3.17;;;;;;;26.71;79.70;68926.06;5052586;28;20272;-67
2021/06/22 02:43:21;;;;;;;3.17;2.63;;;;;;;26.69;80.16;68923.91;5057070;28;20245;-67
2021/06/22 02:45:48;;;;;;;4.67;2.67;;;;;;;26.70;77.95;68924.63;5050261;28;20204;-67
2021/06/22 02:48:17;;;;;;;3.77;2.40;;;;;;;26.71;76.82;68926.53;5051721;28;20207;-67
2021/06/22 02:50:44;;;;;;;4.30;2.60;;;;;;;26.72;77.63;68927.38;5047793;28;20213;-67
2021/06/22 02:53:12;;;;;;;6.77;3.03;;;;;;;26.71;79.42;68926.97;5045016;28;20238;-67
2021/06/22 02:55:39;;;;;;;4.63;3.03;;;;;;;26.69;81.50;68925.06;5050393;28;20219;-67
2021/06/22 02:58:07;;;;;;;5.10;3.13;;;;;;;26.69;80.78;68925.00;5051548;28;20211;-67
2021/06/22 03:00:35;;;;;;;2.87;2.50;;;;;;;26.72;78.22;68927.59;5046354;28;20294;-67
2021/06/22 03:03:02;;;;;;;4.60;3.10;;;;;;;26.73;78.15;68929.28;5051731;28;20232;-67
2021/06/22 03:05:31;;;;;;;4.47;3.13;;;;;;;26.74;78.78;68930.47;5051171;28;20204;-67
2021/06/22 03:07:58;;;;;;;4.23;3.40;;;;;;;26.74;80.23;68930.75;5050300;28;20657;-67
2021/06/22 03:10:27;;;;;;;5.77;3.77;;;;;;;26.76;78.33;68932.59;5054431;28;20215;-67
2021/06/22 03:12:54;;;;;;;7.23;3.43;;;;;;;26.78;77.91;68935.25;5049149;28;20228;-67
2021/06/22 03:15:22;;;;;;;8.03;3.83;;;;;;;26.80;77.88;68937.44;5048572;28;20663;-67
2021/06/22 03:17:50;;;;;;;4.27;3.30;;;;;;;26.81;78.02;68938.63;5050167;28;20212;-67
2021/06/22 03:20:19;;;;;;;5.13;3.20;;;;;;;26.82;76.71;68940.66;5050615;28;20234;-67
2021/06/22 03:22:47;;;;;;;4.40;3.10;;;;;;;26.85;76.58;68943.69;5048669;28;20539;-67
2021/06/22 03:25:15;;;;;;;4.50;3.43;;;;;;;26.85;78.07;68944.25;5048744;28;20653;-67
2021/06/22 03:27:44;;;;;;;8.83;3.60;;;;;;;26.88;76.81;68947.13;5056811;28;20203;-67
2021/06/22 03:30:12;;;;;;;6.03;4.20;;;;;;;26.86;80.34;68945.22;5049802;28;20231;-68
2021/06/22 03:32:43;;;;;;;6.33;3.93;;;;;;;26.87;78.83;68945.84;5049433;28;20575;-67
2021/06/22 03:35:11;;;;;;;9.90;3.90;;;;;;;26.89;77.52;68948.50;5053279;28;20211;-67
2021/06/22 03:37:39;;;;;;;5.50;3.70;;;;;;;26.91;77.69;68951.22;5049843;28;20207;-67
2021/06/22 03:40:08;;;;;;;9.57;5.67;;;;;;;26.87;84.10;68947.06;5048829;28;20214;-67
2021/06/22 03:42:36;;;;;;;6.10;4.00;;;;;;;26.79;91.51;68937.34;5040708;28;20202;-67
2021/06/22 03:45:05;;;;;;;7.87;3.57;;;;;;;26.77;83.32;68936.19;5050395;28;20203;-67
2021/06/22 03:47:33;;;;;;;4.33;3.57;;;;;;;26.81;78.29;68939.63;5048186;28;20656;-67
2021/06/22 03:50:00;;;;;;;6.97;3.73;;;;;;;26.85;76.92;68944.69;5049789;28;20199;-67
2021/06/22 03:52:27;;;;;;;5.33;3.30;;;;;;;26.90;76.98;68950.16;5043188;28;20209;-67
2021/06/22 03:54:55;;;;;;;6.27;3.67;;;;;;;26.93;77.63;68953.72;5049977;28;20214;-67
2021/06/22 03:57:23;;;;;;;4.23;3.83;;;;;;;26.96;77.77;68957.47;5051548;28;20229;-67
2021/06/22 03:59:51;;;;;;;6.43;3.77;;;;;;;27.00;76.77;68962.03;5055889;28;20642;-67
2021/06/22 04:02:19;;;;;;;7.13;3.77;;;;;;;27.04;76.80;68966.69;5046976;28;55797;-67
2021/06/22 04:04:46;;;;;;;5.40;4.43;;;;;;;27.08;76.51;68971.25;5035238;28;20704;-67
2021/06/22 04:07:14;;;;;;;7.20;4.70;;;;;;;27.12;76.20;68975.56;5046890;28;20550;-67
2021/06/22 04:09:41;;;;;;;6.17;4.33;;;;;;;27.16;75.87;68980.72;5050634;28;20787;-67
2021/06/22 04:12:09;;;;;;;8.80;4.23;;;;;;;27.18;76.99;68982.94;5053610;28;20204;-68
2021/06/22 04:14:38;;;;;;;8.10;4.57;;;;;;;27.22;75.51;68987.72;5054678;28;20601;-68
2021/06/22 04:17:05;;;;;;;10.80;4.73;;;;;;;27.26;74.79;68992.75;5048414;28;20307;-67
2021/06/22 04:19:32;;;;;;;3.70;3.20;;;;;;;27.29;77.69;68995.41;5050303;28;20267;-67
2021/06/22 04:21:59;;;;;;;4.27;3.77;;;;;;;27.34;75.93;69000.69;5053035;28;20544;-67
2021/06/22 04:24:27;;;;;;;9.20;3.50;;;;;;;27.38;76.37;69005.47;5049850;28;20614;-65
2021/06/22 04:26:54;;;;;;;7.50;4.17;;;;;;;27.42;74.62;69010.53;5053782;28;20209;-67
2021/06/22 04:29:21;;;;;;;8.40;3.37;;;;;;;27.42;77.43;69010.81;5050154;28;20224;-67
2021/06/22 04:31:50;;;;;;;4.67;3.57;;;;;;;27.47;75.00;69016.16;5044466;28;20206;-67
2021/06/22 04:34:19;;;;;;;4.50;3.33;;;;;;;27.51;75.01;69021.34;5055929;28;20234;-67
2021/06/22 04:36:46;;;;;;;6.50;3.53;;;;;;;27.46;84.11;69016.09;5047334;28;20253;-67
2021/06/22 04:39:13;;;;;;;4.53;3.90;;;;;;;27.41;83.16;69009.84;5059792;28;20207;-67
2021/06/22 04:41:41;;;;;;;4.70;4.00;;;;;;;27.32;86.60;69000.66;5053921;28;21174;-67
2021/06/22 04:44:08;;;;;;;7.43;3.77;;;;;;;27.25;87.87;68992.81;5066315;28;20696;-67
2021/06/22 04:46:35;;;;;;;5.30;4.03;;;;;;;27.21;86.81;68987.97;5047606;28;20197;-67
2021/06/22 04:49:04;;;;;;;8.73;4.20;;;;;;;27.15;85.91;68981.66;5052876;28;20227;-67
2021/06/22 04:51:31;;;;;;;8.30;4.20;;;;;;;27.13;83.68;68979.84;5054466;28;20211;-67
2021/06/22 04:53:58;;;;;;;5.23;3.57;;;;;;;27.09;86.58;68975.00;5057948;28;20835;-67
2021/06/22 04:56:26;;;;;;;5.93;3.97;;;;;;;27.05;86.86;68970.13;5053008;28;20232;-67
2021/06/22 04:58:56;;;;;;;7.07;4.40;;;;;;;27.01;85.29;68966.38;5062517;28;20254;-67
2021/06/22 05:01:24;;;;;;;6.93;4.40;;;;;;;27.02;82.50;68967.72;5060022;28;20208;-67
2021/06/22 05:03:52;;;;;;;7.17;5.60;;;;;;;27.00;84.45;68964.84;5052692;28;20238;-67
2021/06/22 05:06:21;;;;;;;10.13;6.63;;;;;;;27.01;81.45;68966.38;5047425;28;20206;-67
2021/06/22 05:08:48;;;;;;;10.00;6.43;;;;;;;27.02;82.56;68966.78;5053346;28;20300;-67
2021/06/22 05:11:15;;;;;;;13.40;6.70;;;;;;;27.06;78.87;68971.69;5050445;28;20222;-67
2021/06/22 05:13:44;;;;;;;9.80;7.57;;;;;;;27.13;76.97;68978.97;5054566;28;20220;-67
2021/06/22 05:16:11;;;;;;;11.33;6.20;;;;;;;27.16;78.00;68983.44;5054691;28;20234;-68
2021/06/22 05:18:38;;;;;;;9.27;6.80;;;;;;;27.19;80.18;68986.69;5053051;28;20206;-69
2021/06/22 05:21:06;;;;;;;11.17;7.60;;;;;;;27.17;83.72;68984.53;5053241;28;20213;-68
2021/06/22 05:23:34;;;;;;;10.10;7.17;;;;;;;27.25;74.15;68993.13;5052882;28;20233;-67
2021/06/22 05:26:02;;;;;;;8.47;7.03;;;;;;;27.34;72.27;69003.47;5053162;28;20663;-69
2021/06/22 05:28:29;;;;;;;8.83;6.13;;;;;;;27.38;75.74;69007.91;5052636;28;20935;-67
2021/06/22 05:30:57;;;;;;;12.27;6.70;;;;;;;27.35;82.54;69005.50;5054943;28;20568;-72
2021/06/22 05:33:24;;;;;;;11.13;6.90;;;;;;;27.34;82.76;69004.22;5053601;28;20605;-70
2021/06/22 05:35:52;;;;;;;7.47;6.23;;;;;;;27.39;76.25;69009.84;5051772;28;20206;-74
2021/06/22 05:38:19;;;;;;;10.73;7.28;;;;;;;27.44;75.59;69015.72;5052274;28;20442;-68
2021/06/22 05:40:47;;;;;;;15.00;8.67;;;;;;;27.49;75.82;69021.13;5054408;28;20202;-71
2021/06/22 05:43:15;;;;;;;10.33;7.87;;;;;;;27.53;77.97;69025.09;5052686;28;20231;-72
2021/06/22 05:45:42;;;;;;;10.37;8.20;;;;;;;27.54;80.41;69025.97;5051046;28;20345;-74
2021/06/22 05:48:09;;;;;;;10.63;7.50;;;;;;;27.61;75.26;69033.81;5053664;28;20194;-73
2021/06/22 05:50:37;;;;;;;8.13;5.73;;;;;;;27.67;75.50;69041.09;5051902;28;20209;-71
2021/06/22 05:53:04;;;;;;;9.47;5.70;;;;;;;27.72;76.84;69045.66;5059840;28;20245;-75
2021/06/22 05:55:32;;;;;;;7.27;5.83;;;;;;;27.78;75.02;69052.72;5052146;28;20293;-73
2021/06/22 05:58:01;;;;;;;11.80;7.03;;;;;;;27.82;75.29;69058.38;5052034;28;20597;-69
2021/06/22 06:00:30;;;;;;;10.57;7.17;;;;;;;27.86;74.90;69062.84;5050640;28;20210;-73
2021/06/22 06:02:57;;;;;;;8.90;6.90;;;;;;;27.95;71.56;69072.69;5058948;28;20238;-69
2021/06/22 06:05:25;;;;;;;11.07;6.93;;;;;;;27.98;74.82;69075.81;5050335;28;20554;-71
2021/06/22 06:07:53;;;;;;;13.83;6.57;;;;;;;28.03;73.05;69081.91;5051121;28;20205;-69
2021/06/22 06:10:20;;;;;;;10.30;6.67;;;;;;;28.09;73.52;69088.47;5053011;28;20217;-67
2021/06/22 06:12:48;;;;;;;10.10;6.63;;;;;;;28.07;79.27;69086.34;5053151;28;20231;-67
2021/06/22 06:15:17;;;;;;;8.00;7.20;;;;;;;28.07;78.45;69086.63;5050743;28;20660;-71
2021/06/22 06:17:45;;;;;;;10.87;6.63;;;;;;;28.11;74.77;69091.44;5047983;28;20228;-72
2021/06/22 06:20:14;;;;;;;9.60;6.53;;;;;;;28.16;73.94;69096.63;5050800;28;20655;-70
2021/06/22 06:22:43;;;;;;;8.50;6.53;;;;;;;28.18;73.53;69099.78;5053539;28;21025;-71
2021/06/22 06:25:12;;;;;;;9.63;6.10;;;;;;;28.19;77.41;69100.66;5048655;28;20264;-73
2021/06/22 06:27:46;;;;;;;8.27;6.20;;;;;;;28.20;75.36;69102.09;5050123;28;20769;-72
2021/06/22 06:30:18;;;;;;;8.47;6.27;;;;;;;28.25;74.37;69107.09;5051144;28;20204;-70
2021/06/22 06:32:45;;;;;;;7.47;5.70;;;;;;;28.20;82.95;69101.41;5052567;28;20201;-73
2021/06/22 06:35:13;;;;;;;8.80;6.20;;;;;;;28.11;86.00;69091.06;5045848;28;20241;-73
2021/06/22 06:37:41;;;;;;;13.47;6.20;;;;;;;28.08;81.44;69088.28;5045075;28;20586;-70
2021/06/22 06:40:09;;;;;;;10.23;6.57;;;;;;;28.16;70.93;69097.66;5055954;28;20271;-73
2021/06/22 06:42:37;;;;;;;9.10;6.97;;;;;;;28.22;73.54;69103.53;5051890;28;20286;-71
2021/06/22 06:45:05;;;;;;;7.63;6.03;;;;;;;28.25;73.22;69107.28;5049587;28;20211;-71
2021/06/22 06:47:34;;;;;;;9.53;6.00;;;;;;;28.27;73.99;69109.28;5051569;28;20540;-71
2021/06/22 06:50:01;;;;;;;6.20;5.43;;;;;;;28.32;71.07;69115.22;5051451;28;20205;-71
2021/06/22 06:52:28;;;;;;;9.57;5.43;;;;;;;28.43;65.92;69128.03;5051316;28;20829;-71
2021/06/22 06:54:56;;;;;;;6.80;5.53;;;;;;;28.40;75.38;69125.13;5049204;28;20865;-70
2021/06/22 06:57:23;;;;;;;7.30;6.00;;;;;;;28.49;67.78;69134.63;5050828;28;20230;-69
2021/06/22 06:59:50;;;;;;;9.70;5.67;;;;;;;28.60;63.13;69147.88;5049235;28;20298;-68
2021/06/22 07:02:18;;;;;;;10.50;5.80;;;;;;;28.59;73.05;69146.44;5049041;28;20225;-68
2021/06/22 07:04:46;;;;;;;6.50;5.43;;;;;;;28.63;71.04;69150.88;5051234;28;20222;-73
2021/06/22 07:07:13;;;;;;;7.40;5.57;;;;;;;28.65;70.33;69154.09;5049932;28;20198;-70
2021/06/22 07:09:41;;;;;;;11.27;6.27;;;;;;;28.74;67.44;69164.09;5050456;28;20207;-70
2021/06/22 07:12:09;;;;;;;9.67;5.73;;;;;;;28.76;73.37;69166.22;5050078;28;20762;-69
2021/06/22 07:14:36;;;;;;;13.07;6.50;;;;;;;28.83;67.73;69174.06;5057451;28;20229;-69
2021/06/22 07:17:04;;;;;;;8.23;6.00;;;;;;;28.87;67.72;69178.78;5051055;28;20229;-69
2021/06/22 07:19:31;;;;;;;7.93;5.60;;;;;;;28.84;74.59;69174.75;5047309;28;20215;-72
2021/06/22 07:22:00;;;;;;;6.53;5.07;;;;;;;28.87;68.94;69178.13;5045029;28;20211;-74
2021/06/22 07:24:27;;;;;;;9.60;5.30;;;;;;;28.96;63.48;69189.09;5049539;28;20329;-71
2021/06/22 07:26:54;;;;;;;6.13;5.10;;;;;;;29.04;64.56;69197.88;5049050;28;20315;-71
2021/06/22 07:29:21;;;;;;;6.83;4.17;;;;;;;29.15;62.45;69209.94;5047044;28;20209;-70
2021/06/22 07:31:49;;;;;;;5.33;3.50;;;;;;;29.32;54.13;69229.41;5048185;28;20204;-72
2021/06/22 07:34:16;;;;;;;5.67;3.37;;;;;;;29.40;59.83;69237.88;5047962;28;20235;-71
2021/06/22 07:36:43;;;;;;;5.77;3.77;;;;;;;29.32;71.63;69229.53;5047743;28;20227;-71
2021/06/22 07:39:12;;;;;;;5.07;3.33;;;;;;;29.37;63.65;69235.22;5049878;28;20201;-71
2021/06/22 07:41:39;;;;;;;4.83;3.00;;;;;;;29.42;61.90;69240.53;5049968;28;20673;-72
2021/06/22 07:44:07;;;;;;;3.97;3.30;;;;;;;29.42;65.56;69241.09;5049353;28;20700;-72
2021/06/22 07:46:34;;;;;;;4.63;3.00;;;;;;;29.44;63.86;69243.88;5050289;28;20219;-72
2021/06/22 07:49:01;;;;;;;4.20;2.00;;;;;;;29.55;50.27;69256.47;5048959;28;20205;-71
2021/06/22 07:51:28;;;;;;;3.17;1.77;;;;;;;29.65;51.44;69267.38;5047143;28;20207;-72
2021/06/22 07:53:57;;;;;;;5.13;2.60;;;;;;;29.69;58.00;69272.84;5048438;28;20227;-73
2021/06/22 07:56:25;;;;;;;4.13;3.00;;;;;;;29.74;59.73;69278.31;5047732;28;20223;-73
2021/06/22 07:58:53;;;;;;;3.77;2.70;;;;;;;29.75;64.91;69278.75;5049091;28;20221;-71
2021/06/22 08:01:20;;;;;;;4.93;2.75;;;;;;;29.83;57.83;69287.81;5049884;28;20209;-72
2021/06/22 08:03:47;;;;;;;3.55;2.60;;;;;;;29.97;52.42;69303.41;5050200;28;20682;-71
2021/06/22 08:06:15;;;;;;;5.68;3.00;;;;;;;30.03;59.23;69310.31;5046501;28;20597;-71
2021/06/22 08:08:42;;;;;;;4.82;2.65;;;;;;;30.03;61.72;69311.00;5051791;28;20204;-71
2021/06/22 08:11:09;;;;;;;5.22;2.90;;;;;;;30.11;57.11;69319.50;5053698;28;20213;-71
2021/06/22 08:13:38;;;;;;;4.57;2.20;;;;;;;30.22;52.06;69331.56;5051427;28;20244;-72
2021/06/22 08:16:06;;;;;;;4.45;2.50;;;;;;;30.19;59.44;69329.31;5053540;28;20216;-73
2021/06/22 08:18:34;;;;;;;5.68;2.60;;;;;;;30.26;55.43;69336.50;5053867;28;20692;-75
2021/06/22 08:21:01;;;;;;;4.43;2.73;;;;;;;30.23;60.77;69333.97;5052592;28;20205;-70
2021/06/22 08:23:29;;;;;;;5.00;2.40;;;;;;;30.17;63.90;69327.09;5059638;28;20252;-71
2021/06/22 08:25:56;;;;;;;2.97;1.60;;;;;;;30.15;57.96;69324.69;5052092;28;20201;-72
2021/06/22 08:28:24;;;;;;;4.68;1.55;;;;;;;30.19;52.99;69330.31;5051763;28;20201;-73
2021/06/22 08:30:52;;;;;;;1.30;1.20;;;;;;;30.25;51.40;69336.03;5052606;28;20212;-72
2021/06/22 08:33:20;;;;;;;3.47;1.30;;;;;;;30.22;54.77;69333.28;5050839;28;20229;-73
2021/06/22 08:35:48;;;;;;;6.30;2.40;;;;;;;30.23;59.15;69333.72;5050532;28;20211;-72
2021/06/22 08:38:16;;;;;;;6.17;2.93;;;;;;;30.27;60.22;69338.69;5048998;28;20231;-71
2021/06/22 08:40:45;;;;;;;6.40;3.20;;;;;;;30.15;69.77;69325.59;5053341;28;20707;-70
2021/06/22 08:43:14;;;;;;;6.43;3.77;;;;;;;30.03;76.60;69311.56;5051677;28;20230;-72
2021/06/22 08:45:42;;;;;;;5.80;3.93;;;;;;;30.00;73.97;69308.00;5052317;28;20198;-73
2021/06/22 08:48:12;;;;;;;5.37;3.80;;;;;;;29.92;74.35;69298.31;5052861;28;20201;-73
2021/06/22 08:50:40;;;;;;;8.17;4.97;;;;;;;29.83;77.41;69288.75;5049704;28;20204;-73
2021/06/22 08:53:08;;;;;;;8.57;5.07;;;;;;;29.75;77.67;69280.19;5053061;28;20329;-72
2021/06/22 08:55:35;;;;;;;6.87;5.13;;;;;;;29.72;79.75;69277.06;5043468;28;21103;-70
2021/06/22 08:58:05;;;;;;;6.97;5.30;;;;;;;29.64;78.47;69267.44;5039571;28;20232;-71
2021/06/22 09:00:35;;;;;;;11.67;6.53;;;;;;;29.50;84.19;69251.75;5052587;28;20217;-71
2021/06/22 09:03:05;;;;;;;7.10;5.70;;;;;;;29.47;78.17;69248.28;5043393;28;20319;-72
2021/06/22 09:05:34;;;;;;;9.27;5.60;;;;;;;29.49;72.93;69250.78;5050371;28;20213;-74
2021/06/22 09:08:02;;;;;;;7.10;5.40;;;;;;;29.48;72.61;69249.25;5050938;28;20202;-73
2021/06/22 09:10:31;;;;;;;8.50;6.57;;;;;;;29.53;70.96;69255.31;5052010;28;20206;-72
2021/06/22 09:12:59;;;;;;;9.13;6.13;;;;;;;29.58;68.38;69260.88;5049124;28;20257;-72
2021/06/22 09:15:29;;;;;;;11.50;6.07;;;;;;;29.55;71.14;69257.56;5051386;28;20211;-73
2021/06/22 09:17:57;;;;;;;7.90;6.10;;;;;;;29.47;76.39;69249.31;5051886;28;20223;-73
2021/06/22 09:20:37;;;;;;;9.43;5.97;;;;;;;29.45;74.98;69247.31;5047358;28;20216;-72
2021/06/22 09:23:17;;;;;;;9.53;6.60;;;;;;;29.44;78.33;69246.94;5051915;28;20233;-73
2021/06/22 09:25:45;;;;;;;10.33;6.20;;;;;;;29.40;79.15;69241.88;5041349;28;20201;-71
2021/06/22 09:28:14;;;;;;;14.10;6.87;;;;;;;29.33;84.39;69234.16;5051752;28;20194;-71
2021/06/22 09:30:50;;;;;;;8.53;6.90;;;;;;;29.28;84.46;69228.91;5048981;28;20206;-71
2021/06/22 09:33:24;;;;;;;9.80;7.30;;;;;;;29.24;81.55;69224.03;5047819;28;20734;-71
2021/06/22 09:36:06;;;;;;;11.33;8.20;;;;;;;29.23;79.46;69222.88;5046566;28;20691;-71
2021/06/22 09:38:37;;;;;;;11.27;8.23;;;;;;;29.19;82.98;69219.00;5048766;28;20221;-71
2021/06/22 09:41:13;;;;;;;9.30;7.33;;;;;;;29.24;74.95;69223.91;5051393;28;20198;-72
2021/06/22 09:43:42;;;;;;;13.23;8.47;;;;;;;29.28;74.54;69228.16;5052007;28;20231;-71
2021/06/22 09:46:11;;;;;;;9.80;7.60;;;;;;;29.32;74.06;69232.59;5050095;28;20666;-71
2021/06/22 09:48:53;;;;;;;9.50;7.00;;;;;;;29.36;71.59;69237.50;5050984;28;20224;-71
2021/06/22 09:51:30;;;;;;;9.00;6.63;;;;;;;29.39;71.05;69240.31;5051772;28;20218;-71
2021/06/22 09:54:09;;;;;;;8.47;6.93;;;;;;;29.44;70.11;69246.59;5050240;28;20720;-70
2021/06/22 09:56:37;;;;;;;9.43;6.90;;;;;;;29.53;67.56;69256.78;5051143;28;20211;-72
2021/06/22 09:59:08;;;;;;;7.27;5.93;;;;;;;29.58;66.17;69262.28;5046257;28;20228;-72
2021/06/22 10:01:37;;;;;;;8.53;5.43;;;;;;;29.61;67.93;69265.00;5050598;28;20215;-71
2021/06/22 10:04:15;;;;;;;11.60;7.03;;;;;;;29.57;71.78;69261.03;5045426;28;20712;-71
2021/06/22 10:06:50;;;;;;;14.10;6.90;;;;;;;29.62;65.56;69267.19;5048393;28;20207;-70
2021/06/22 10:09:21;;;;;;;8.30;6.93;;;;;;;29.68;66.29;69274.09;5051111;28;20610;-72
2021/06/22 10:11:48;;;;;;;7.17;6.27;;;;;;;29.69;68.99;69274.97;5051894;28;20207;-72
2021/06/22 10:14:26;;;;;;;6.70;6.00;;;;;;;29.70;67.99;69276.13;5051289;28;20316;-72
2021/06/22 10:16:54;;;;;;;8.03;6.83;;;;;;;29.64;77.98;69269.66;5048928;28;20683;-72
2021/06/22 10:19:23;;;;;;;7.67;6.30;;;;;;;29.54;79.45;69258.31;5046780;28;20230;-72
2021/06/22 10:21:53;;;;;;;7.87;7.07;;;;;;;29.49;78.35;69252.19;5051076;28;20209;-72
2021/06/22 10:24:21;;;;;;;8.27;7.23;;;;;;;29.58;67.56;69263.09;5051394;28;20229;-72
2021/06/22 10:26:49;;;;;;;7.50;6.70;;;;;;;29.57;73.26;69262.13;5044423;28;20293;-73
2021/06/22 10:29:19;;;;;;;8.53;6.23;;;;;;;29.54;71.71;69257.91;5049393;28;20204;-73
2021/06/22 10:31:48;;;;;;;9.53;5.83;;;;;;;29.63;64.24;69267.94;5049438;28;20267;-72
2021/06/22 10:34:15;;;;;;;9.20;5.67;;;;;;;29.61;71.89;69265.91;5046810;28;20224;-73
2021/06/22 10:36:49;;;;;;;8.77;5.70;;;;;;;29.66;67.71;69270.59;5048906;28;20203;-73
2021/06/22 10:39:23;;;;;;;5.83;4.50;;;;;;;29.72;63.88;69277.91;5043795;28;20228;-73
2021/06/22 10:41:50;;;;;;;5.73;3.70;;;;;;;29.74;61.33;69280.09;5048975;28;20218;-72
2021/06/22 10:44:38;;;;;;;4.37;3.27;;;;;;;29.74;59.84;69280.28;5050827;28;20253;-73
2021/06/22 10:47:21;;;;;;;6.93;3.37;;;;;;;29.69;62.86;69274.84;5045566;28;20208;-78
2021/06/22 10:50:18;;;;;;;5.47;3.17;;;;;;;29.63;64.00;69267.94;5050886;28;20206;-72
2021/06/22 10:53:00;;;;;;;5.57;3.63;;;;;;;29.56;70.22;69260.50;5030282;28;20698;-75
2021/06/22 10:55:58;;;;;;;4.70;4.10;;;;;;;29.50;71.93;69253.63;5048922;28;20206;-73
2021/06/22 10:58:26;;;;;;;7.63;4.53;;;;;;;29.37;73.88;69239.72;5048992;28;20230;-73
2021/06/22 11:01:16;;;;;;;5.33;3.93;;;;;;;29.31;72.54;69232.81;5049886;28;20201;-78
2021/06/22 11:03:43;;;;;;;7.67;4.37;;;;;;;29.26;72.39;69226.66;5041248;28;20233;-75
2021/06/22 11:06:28;;;;;;;7.20;4.73;;;;;;;29.21;71.80;69221.34;5047700;28;20198;-74
2021/06/22 11:09:15;;;;;;;4.57;4.07;;;;;;;29.18;70.81;69217.16;5045254;28;20194;-73
2021/06/22 11:11:42;;;;;;;6.77;4.23;;;;;;;29.17;68.34;69216.63;5050503;28;20662;-75
2021/06/22 11:14:12;;;;;;;5.33;4.60;;;;;;;29.10;70.33;69209.03;5051301;28;20222;-71
2021/06/22 11:16:40;;;;;;;5.00;4.47;;;;;;;29.05;71.43;69203.44;5049601;28;20289;-71
2021/06/22 11:19:12;;;;;;;6.77;5.20;;;;;;;28.94;77.37;69191.19;5049462;28;20226;-71
2021/06/22 11:21:52;;;;;;;8.57;5.17;;;;;;;28.90;71.75;69186.50;5050088;28;20210;-70
2021/06/22 11:24:26;;;;;;;8.77;6.10;;;;;;;28.84;76.00;69179.00;5047184;28;20221;-74
2021/06/22 11:27:11;;;;;;;11.73;6.40;;;;;;;28.77;77.88;69171.41;5044959;28;20210;-74
2021/06/22 11:29:55;;;;;;;9.90;6.63;;;;;;;28.70;76.52;69164.28;5043549;28;20205;-72
2021/06/22 11:32:37;;;;;;;7.93;5.77;;;;;;;28.67;74.83;69160.63;5048445;28;20212;-72
2021/06/22 11:35:18;;;;;;;8.13;5.47;;;;;;;28.64;74.39;69156.78;5047664;28;20589;-71
2021/06/22 11:37:46;;;;;;;7.40;5.50;;;;;;;28.61;72.03;69153.91;5049087;28;20288;-69
2021/06/22 11:40:20;;;;;;;7.50;5.03;;;;;;;28.56;74.96;69147.56;5043894;28;20202;-70